Terminal Aerodrome Forecast
Issued by NWS

Home | Current Version | Previous Version | Text Only | Print | Product List | Glossary On
Versions: 1 2 3 4 5 6 7 8 9 10 11 12 13 14 15 16 17
000
FTUS45 KABQ 171700
TAFAEG
TAF
KAEG 171740Z 1718/1818 22008KT P6SM OVC035
      TEMPO 1718/1722 5SM -SHSN OVC015
     FM180200 25005KT P6SM OVC040=

USA.gov is the U.S. government's official web portal to all federal, state and local government web resources and services.